This is the latest recevied weather packets stored in our database for station/object SQ8AQL-16. If no packets are shown the sender has not sent any weather packets the latest 10 day(s).
| Time | Temp. | Humidity | Pressure | Rain* | Wind** | Luminosity | Snow |
|---|---|---|---|---|---|---|---|
| 1777638494 | 23.89° C | 25% | 1026.8 hPa | - | - | 761 W/m² | - |
| 1777637593 | 26.67° C | 21% | 1027 hPa | - | - | 223 W/m² | - |
| 1777636693 | 28.33° C | 20% | 1027.1 hPa | - | - | 899 W/m² | - |
| 1777635791 | 25.56° C | 21% | 1027.2 hPa | - | - | 888 W/m² | - |
| 1777634890 | 23.33° C | 25% | 1027.2 hPa | - | - | 867 W/m² | - |
| 1777633989 | 21.11° C | 28% | 1027.5 hPa | - | - | 444 W/m² | - |
| 1777633092 | 21.11° C | 28% | 1027.5 hPa | - | - | 444 W/m² | - |
| 1777632187 | 21.11° C | 28% | 1027.6 hPa | - | - | 276 W/m² | - |
| 1777631286 | 18.33° C | 30% | 1027.8 hPa | - | - | 347 W/m² | - |
| 1777630385 | 18.33° C | 30% | 1027.8 hPa | - | - | 347 W/m² | - |
| 1777629484 | 18.33° C | 30% | 1027.9 hPa | - | - | 347 W/m² | - |
| 1777628583 | 18.33° C | 30% | 1028 hPa | - | - | 194 W/m² | - |
| 1777627682 | 17.78° C | 30% | 1028 hPa | - | - | 165 W/m² | - |
| 1777626780 | 17.78° C | 30% | 1028.2 hPa | - | - | 167 W/m² | - |
| 1777625880 | 16.67° C | 31% | 1028.4 hPa | - | - | 195 W/m² | - |
| 1777624979 | 15.56° C | 31% | 1028.6 hPa | - | - | 165 W/m² | - |
| 1777624078 | 14.44° C | 31% | 1028.7 hPa | - | - | 80 W/m² | - |
| 1777623177 | 14.44° C | 31% | 1028.7 hPa | - | - | 80 W/m² | - |
| 1777622276 | 13.89° C | 32% | 1028.8 hPa | - | - | 98 W/m² | - |
| 1777621375 | 13.33° C | 33% | 1028.9 hPa | - | - | 100 W/m² | - |
| 1777620473 | 13.33° C | 35% | 1028.9 hPa | - | - | 104 W/m² | - |
| 1777619572 | 12.78° C | 35% | 1029 hPa | - | - | 104 W/m² | - |
| 1777618671 | 11.67° C | 36% | 1028.9 hPa | - | - | 84 W/m² | - |
| 1777617770 | 11.67° C | 36% | 1028.9 hPa | - | - | 84 W/m² | - |
| 1777616869 | 10.56° C | 40% | 1028.9 hPa | - | - | 72 W/m² | - |
* Rain since midnight (hover to see other rain measurements)
** Current wind speed in m/s (hover to see current wind gust speed)